• Join FlightAware (Why Join?)
  • Login
  • US Flag 
04:18PM EST


 

Airport Tracker/Info


-or-


 

Live Flight TrackerFlight Track Log ✈ DAL268 ✈ 31-Jul-2013 ✈ KJFK - LLBG / TLV

Flight Track Log - Related Links

Times and Time Zones

All times are in EDT time to prevent confusion due to time zone crossing. See the DAL268 flight status page for this flight to view local times or setup timezone preferences in your user account.

Time Position Orientation Groundspeed Altitude Reporting Facility
EDT Latitude Longitude Course Direction KTS MPH feet Rate Location/Type
12:37AM 40.6310 -73.7790 270° West 92 106  Level FlightAware
12:37AM 40.6380 -73.7930 303° West 165 190 660 Level FlightAware
12:37AM 40.6470 -73.8130 301° West 180 207 500 1,500 Climbing FlightAware
12:37AM 40.6500 -73.8210 296° West 183 211 800 2,100 Climbing FlightAware
12:38AM 40.6510 -73.8300 278° West 182 209 1,100 1,680 Climbing FlightAware
12:38AM 40.6450 -73.8510 249° West 192 221 1,600 1,260 Climbing FlightAware
12:38AM 40.6400 -73.8570 222° Southwest 199 229 1,700 1,200 Climbing FlightAware
12:38AM 40.6320 -73.8680 226° Southwest 208 239 2,000 1,500 Climbing FlightAware
12:39AM 40.6170 -73.8860 222° Southwest 228 262 2,500 1,140 Climbing FlightAware
12:39AM 40.6110 -73.8920 217° Southwest 235 270 2,500 360 Level FlightAware
12:39AM 40.6000 -73.8970 199° South 245 282 2,600 720 Climbing FlightAware
12:39AM 40.5670 -73.8810 160° South 277 319 3,000 840 Climbing FlightAware
12:39AM 40.5640 -73.8770 135° Southeast 280 322 3,100 1,380 Climbing FlightAware
12:40AM 40.5550 -73.8590 123° Southeast 286 329 3,600 1,920 Climbing FlightAware
12:40AM 40.5500 -73.8280 102° East 298 343 4,100 2,100 Climbing FlightAware
12:40AM 40.5640 -73.7725 72° East 300 345 5,000 1,920 Climbing FlightAware ADS-B
12:41AM 40.5728 -73.7477 65° Northeast 298 343 5,600 2,280 Climbing FlightAware ADS-B
12:41AM 40.5816 -73.7211 66° East 300 345 6,200 1,920 Climbing FlightAware ADS-B
12:41AM 40.5900 -73.6954 67° East 309 356 6,600 1,980 Climbing FlightAware ADS-B
12:41AM 40.5986 -73.6711 65° Northeast 311 358 7,200 2,160 Climbing FlightAware ADS-B
12:41AM 40.6013 -73.6628 67° East 311 358 7,300 2,220 Climbing FlightAware ADS-B
12:42AM 40.6043 -73.6566 57° Northeast 311 358 7,500 1,980 Climbing FlightAware ADS-B
12:42AM 40.6088 -73.6506 45° Northeast 314 361 7,600 1,500 Climbing FlightAware ADS-B
12:42AM 40.6122 -73.6453 50° Northeast 314 361 7,700 1,500 Climbing FlightAware ADS-B
12:42AM 40.6179 -73.6395 38° Northeast 314 361 7,800 1,860 Climbing FlightAware ADS-B
12:42AM 40.6310 -73.6297 30° Northeast 311 358 8,200 2,040 Climbing FlightAware ADS-B
12:42AM 40.6625 -73.6080 28° Northeast 313 360 9,000 1,800 Climbing FlightAware ADS-B
12:43AM 40.6822 -73.5940 28° Northeast 319 367 9,400 1,620 Climbing FlightAware ADS-B
12:43AM 40.7357 -73.5578 27° Northeast 321 369 10,500 1,200 Climbing FlightAware ADS-B
12:44AM 40.7990 -73.5170 26° Northeast 368 423 11,100 960 Climbing FlightAware
12:45AM 40.8576 -73.4793 26° Northeast 392 451 11,800 1,260 Climbing FlightAware ADS-B
12:45AM 40.9070 -73.4480 26° Northeast 410 472 12,500 1,080 Climbing FlightAware
12:46AM 40.9594 -73.4140 26° Northeast 415 478 12,900 1,500 Climbing FlightAware ADS-B
12:46AM 40.9938 -73.3897 28° Northeast 434 499 13,700 2,100 Climbing FlightAware ADS-B
12:47AM 41.0650 -73.3130 39° Northeast 444 511 15,200 1,860 Climbing FlightAware
12:47AM 41.0760 -73.2970 48° Northeast 446 513 15,400 1,920 Climbing FlightAware
12:47AM 41.1210 -73.2320 47° Northeast 453 521 16,500 2,100 Climbing FlightAware
12:48AM 41.1720 -73.1560 48° Northeast 455 524 17,800 1,740 Climbing FlightAware
12:49AM 41.2230 -73.0780 49° Northeast 468 539 18,600 1,500 Climbing FlightAware
12:49AM 41.2770 -73.0010 47° Northeast 476 548 19,600 1,560 Climbing FlightAware
12:50AM 41.3300 -72.9290 46° Northeast 483 556 20,500 1,500 Climbing FlightAware
12:50AM 41.3850 -72.8530 46° Northeast 490 564 21,400 1,500 Climbing FlightAware
12:51AM 41.4360 -72.7800 47° Northeast 494 568 22,200 1,380 Climbing FlightAware
12:51AM 41.4930 -72.7000 46° Northeast 499 574 23,000 1,260 Climbing FlightAware
12:52AM 41.5500 -72.6200 46° Northeast 504 580 23,800 840 Climbing FlightAware
12:53AM 41.6090 -72.5380 46° Northeast 506 582 24,100 180 Climbing FlightAware
12:53AM 41.6590 -72.4690 46° Northeast 506 582 24,100 1,320 Level FlightAware
12:54AM 41.7290 -72.3680 47° Northeast 528 608 25,600 1,440 Climbing FlightAware
12:55AM 41.7950 -72.2720 47° Northeast 532 612 26,500 1,260 Climbing FlightAware
12:56AM 41.9040 -72.1170 47° Northeast 528 608 27,900 1,980 Climbing FlightAware
12:56AM 41.9610 -72.0360 47° Northeast 525 604 28,800 1,440 Climbing FlightAware
12:57AM 42.0270 -71.9420 47° Northeast 524 603 29,600 1,080 Climbing FlightAware
12:57AM 42.0860 -71.8560 47° Northeast 525 604 30,200 960 Climbing FlightAware
12:58AM 42.1470 -71.7680 47° Northeast 527 606 30,800 960 Climbing FlightAware
12:59AM 42.1990 -71.6920 47° Northeast 529 609 31,300 900 Climbing FlightAware
12:59AM 42.2630 -71.5990 47° Northeast 528 608 31,900 1,020 Climbing FlightAware
01:00AM 42.2960 -71.5500 48° Northeast 527 606 32,300 900 Climbing FlightAware
01:00AM 42.3800 -71.4280 47° Northeast 528 608 33,000 480 Climbing FlightAware
01:01AM 42.4330 -71.3500 47° Northeast 530 610 33,000  Level FlightAware
01:02AM 42.4940 -71.2610 47° Northeast 528 608 33,000  Level FlightAware
01:02AM 42.5150 -71.2290 48° Northeast 527 606 33,000  Level FlightAware
01:03AM 42.6020 -71.1010 47° Northeast 525 604 33,000  Level FlightAware
01:03AM 42.6550 -71.0210 48° Northeast 525 604 33,000  Level FlightAware
01:04AM 42.7150 -70.9330 47° Northeast 526 605 33,000  Level FlightAware
01:04AM 42.7730 -70.8460 48° Northeast 527 606 33,000  Level FlightAware
01:05AM 42.8260 -70.7660 48° Northeast 528 608 33,000  Level FlightAware
01:05AM 42.8850 -70.6770 48° Northeast 528 608 33,000  Level FlightAware
01:06AM 42.9450 -70.5880 47° Northeast 528 608 33,000  Level FlightAware
01:07AM 43.0000 -70.5040 48° Northeast 528 608 33,000  Level FlightAware
01:07AM 43.0520 -70.4260 48° Northeast 529 609 33,000  Level FlightAware
01:08AM 43.1120 -70.3340 48° Northeast 529 609 33,000  Level FlightAware
01:08AM 43.1690 -70.2470 48° Northeast 529 609 33,000  Level FlightAware
01:09AM 43.2210 -70.1670 48° Northeast 529 609 33,000  Level FlightAware
01:10AM 43.2750 -70.0850 48° Northeast 530 610 33,000  Level FlightAware
01:10AM 43.3430 -69.9790 49° Northeast 531 611 33,000  Level FlightAware
01:11AM 43.4010 -69.8910 48° Northeast 532 612 33,000  Level FlightAware
01:11AM 43.4570 -69.8040 48° Northeast 534 615 33,000  Level FlightAware
01:12AM 43.5270 -69.6960 48° Northeast 534 615 33,000  Level FlightAware
01:13AM 43.6000 -69.5820 48° Northeast 536 617 33,000  Level FlightAware
01:13AM 43.6510 -69.5040 48° Northeast 536 617 33,000  Level FlightAware
01:14AM 43.7230 -69.3890 49° Northeast 540 621 33,000  Level FlightAware
01:15AM 43.7850 -69.2900 49° Northeast 540 621 33,000  Level FlightAware
01:15AM 43.8410 -69.2040 48° Northeast 540 621 33,000  Level FlightAware
01:16AM 43.8930 -69.1230 48° Northeast 540 621 33,000  Level FlightAware
01:17AM 43.9470 -69.0400 48° Northeast 540 621 33,000  Level FlightAware
01:17AM 44.0000 -68.9590 48° Northeast 540 621 33,000  Level FlightAware
01:18AM 44.1100 -68.7720 51° Northeast 541 623 33,000  Level FlightAware
01:19AM 44.1650 -68.6830 49° Northeast 540 621 33,000  Level FlightAware
01:19AM 44.2290 -68.5810 49° Northeast 541 623 33,000  Level FlightAware
01:20AM 44.2810 -68.4960 49° Northeast 541 623 33,000  Level FlightAware
01:20AM 44.3420 -68.3960 50° Northeast 541 623 33,000  Level FlightAware
01:21AM 44.4020 -68.2980 49° Northeast 542 624 33,000  Level FlightAware
01:21AM 44.4560 -68.2100 49° Northeast 542 624 33,000  Level FlightAware
01:22AM 44.5150 -68.1130 50° Northeast 541 623 33,000  Level FlightAware
01:23AM 44.5740 -68.0160 49° Northeast 541 623 33,000  Level FlightAware
01:23AM 44.6260 -67.9310 49° Northeast 542 624 33,000  Level FlightAware
01:24AM 44.6840 -67.8330 50° Northeast 541 623 33,000  Level FlightAware
01:24AM 44.7430 -67.7360 49° Northeast 540 621 33,000  Level FlightAware
01:25AM 44.7990 -67.6420 50° Northeast 540 621 33,000  Level FlightAware
01:26AM 44.8470 -67.5620 50° Northeast 535 616 33,000  Level FlightAware
01:26AM 44.9030 -67.4670 50° Northeast 534 615 33,000  Level FlightAware
01:27AM 44.9590 -67.3730 50° Northeast 533 613 33,000  Level FlightAware
01:27AM 45.0160 -67.2770 50° Northeast 534 615 33,000  Level FlightAware
01:28AM 45.0700 -67.1840 51° Northeast 533 613 33,000  Level FlightAware
01:29AM 45.1340 -67.0750 50° Northeast 534 615 33,000  Level FlightAware
01:29AM 45.1810 -66.9940 51° Northeast 534 615 33,000  Level FlightAware
01:30AM 45.2380 -66.8970 50° Northeast 536 617 33,000  Level FlightAware
01:30AM 45.2920 -66.8030 51° Northeast 537 618 33,000  Level FlightAware
01:31AM 45.3580 -66.6910 50° Northeast 538 619 33,000  Level FlightAware
01:31AM 45.4040 -66.6100 51° Northeast 537 618 33,000  Level FlightAware
01:32AM 45.4600 -66.5130 51° Northeast 537 618 33,000  Level FlightAware
01:33AM 45.5160 -66.4150 51° Northeast 541 623 33,000  Level FlightAware
01:33AM 45.5720 -66.3170 51° Northeast 540 621 33,000  Level FlightAware
01:34AM 45.6270 -66.2210 51° Northeast 540 621 33,000  Level FlightAware
01:34AM 45.6910 -66.1080 51° Northeast 541 623 33,000  Level FlightAware
01:35AM 45.7450 -66.0120 51° Northeast 541 623 33,000  Level FlightAware
01:36AM 45.8080 -65.9000 51° Northeast 541 623 33,000  Level FlightAware
01:36AM 45.8610 -65.8060 51° Northeast 540 621 33,000  Level FlightAware
01:37AM 45.9160 -65.7080 51° Northeast 540 621 33,000  Level FlightAware
01:37AM 45.9710 -65.6090 51° Northeast 541 623 33,000  Level FlightAware
01:38AM 46.0260 -65.5090 52° Northeast 540 621 33,000  Level FlightAware
01:39AM 46.0860 -65.4020 51° Northeast 541 623 33,000  Level FlightAware
01:39AM 46.1340 -65.3170 51° Northeast 541 623 33,000  Level FlightAware
01:40AM 46.1860 -65.2230 51° Northeast 541 623 33,000  Level FlightAware
01:41AM 46.2480 -65.1130 51° Northeast 541 623 33,000  Level FlightAware
01:41AM 46.2990 -65.0230 51° Northeast 541 623 33,000  Level FlightAware
01:41AM 46.3150 -64.9940 51° Northeast 541 623 33,000  Level FlightAware
01:42AM 46.3920 -64.8550 51° Northeast 541 623 33,000  Level FlightAware
01:43AM 46.4400 -64.7690 51° Northeast 541 623 33,000  Level FlightAware
01:44AM 46.4890 -64.6820 51° Northeast 541 623 33,000  Level FlightAware
01:44AM 46.5370 -64.5960 51° Northeast 541 623 33,000  Level FlightAware
01:45AM 46.5850 -64.5090 51° Northeast 541 623 33,000  Level FlightAware
01:45AM 46.6330 -64.4220 51° Northeast 541 623 33,000  Level FlightAware
01:46AM 46.6810 -64.3360 51° Northeast 541 623 33,000  Level FlightAware
01:47AM 46.7300 -64.2490 51° Northeast 541 623 33,000  Level FlightAware
01:47AM 46.7780 -64.1620 51° Northeast 541 623 33,000  Level FlightAware
01:48AM 46.8260 -64.0750 51° Northeast 541 623 33,000  Level FlightAware
01:48AM 46.9667 -63.7333 51° Northeast 530 610 33,000  Level Gander Center
01:49AM 47.0333 -63.5667 60° Northeast 530 610 33,000  Level Gander Center
01:50AM 47.1500 -63.3667 49° Northeast 540 621 33,000  Level Gander Center
01:51AM 47.2333 -63.2000 54° Northeast 530 610 33,000  Level Gander Center
01:52AM 47.3167 -63.0333 54° Northeast 530 610 33,000  Level Gander Center
01:53AM 47.4000 -62.8667 54° Northeast 540 621 33,000  Level Gander Center
01:54AM 47.4833 -62.6833 56° Northeast 530 610 33,000  Level Gander Center
01:55AM 47.5667 -62.5167 53° Northeast 540 621 33,000  Level Gander Center
01:56AM 47.6667 -62.3167 53° Northeast 540 621 33,000  Level Gander Center
01:57AM 47.7667 -62.1500 48° Northeast 540 621 33,000  Level Gander Center
01:58AM 47.8500 -61.9833 53° Northeast 530 610 33,000  Level Gander Center
01:59AM 47.9333 -61.7833 58° Northeast 530 610 33,000  Level Gander Center
02:00AM 48.0167 -61.6000 56° Northeast 540 621 33,000  Level Gander Center
02:01AM 48.1000 -61.4333 53° Northeast 530 610 33,000  Level Gander Center
02:02AM 48.1833 -61.2500 56° Northeast 530 610 33,000  Level Gander Center
02:03AM 48.2667 -61.0833 53° Northeast 530 610 33,000  Level Gander Center
02:04AM 48.3667 -60.8833 53° Northeast 530 610 33,000  Level Gander Center
02:05AM 48.4500 -60.7000 56° Northeast 530 610 33,000  Level Gander Center
02:06AM 48.5333 -60.5333 53° Northeast 540 621 33,000  Level Gander Center
02:07AM 48.6167 -60.3500 55° Northeast 540 621 33,000  Level Gander Center
02:08AM 48.7000 -60.1500 58° Northeast 540 621 33,000  Level Gander Center
02:09AM 48.7667 -59.9667 61° Northeast 530 610 33,000  Level Gander Center
02:10AM 48.8500 -59.7833 55° Northeast 530 610 33,000  Level Gander Center
02:11AM 48.9500 -59.6000 50° Northeast 530 610 33,000  Level Gander Center
02:12AM 49.0333 -59.4167 55° Northeast 530 610 33,000  Level Gander Center
02:13AM 49.1167 -59.2333 55° Northeast 520 598 33,000  Level Gander Center
02:14AM 49.2000 -59.0500 55° Northeast 520 598 33,000  Level Gander Center
02:15AM 49.2667 -58.8500 63° Northeast 520 598 33,000  Level Gander Center
02:16AM 49.3500 -58.6667 55° Northeast 520 598 33,000  Level Gander Center
02:17AM 49.4333 -58.4833 55° Northeast 530 610 33,000  Level Gander Center
02:18AM 49.5167 -58.3000 55° Northeast 530 610 33,000  Level Gander Center
02:19AM 49.5833 -58.1167 61° Northeast 530 610 33,000  Level Gander Center
02:21AM 49.7333 -57.7167 60° Northeast 530 610 33,000  Level Gander Center
02:22AM 49.8000 -57.5000 64° Northeast 540 621 33,000  Level Gander Center
02:23AM 49.8667 -57.2833 64° Northeast 530 610 33,000  Level Gander Center
02:24AM 49.9500 -57.1000 55° Northeast 530 610 33,000  Level Gander Center
02:25AM 50.0167 -56.8833 64° Northeast 530 610 33,000  Level Gander Center
02:26AM 50.0833 -56.6667 64° Northeast 530 610 33,000  Level Gander Center
02:27AM 50.1500 -56.4500 64° Northeast 530 610 33,000  Level Gander Center
02:28AM 50.2167 -56.2667 60° Northeast 530 610 33,000  Level Gander Center
02:29AM 50.2667 -56.0667 69° East 530 610 33,000  Level Gander Center
02:30AM 50.3500 -55.8333 61° Northeast 530 610 33,000  Level Gander Center
02:31AM 50.4000 -55.6333 69° East 540 621 33,000  Level Gander Center
02:32AM 50.4667 -55.4167 64° Northeast 540 621 33,000  Level Gander Center
02:33AM 50.5500 -55.2000 59° Northeast 540 621 33,000  Level Gander Center
02:34AM 50.6000 -54.9833 70° East 540 621 33,000  Level Gander Center
02:41AM 51.0260 -53.6530 65° Northeast 543 625 33,000  Level FlightAware
02:41AM 51.0660 -53.5180 65° Northeast 542 624 33,000  Level FlightAware
02:42AM 51.1200 -53.3340 65° Northeast 542 624 33,000  Level FlightAware
02:43AM 51.1520 -53.2230 65° Northeast 542 624 33,000  Level FlightAware
02:44AM 51.1840 -53.1120 65° Northeast 542 624 33,000  Level FlightAware
02:44AM 51.2170 -53.0010 65° Northeast 542 624 33,000  Level FlightAware
02:45AM 51.2500 -52.8870 65° Northeast 542 624 33,000  Level FlightAware
02:45AM 51.2830 -52.7720 65° Northeast 542 624 33,000  Level FlightAware
02:46AM 51.3170 -52.6580 64° Northeast 542 624 33,000  Level FlightAware
02:47AM 51.3490 -52.5470 65° Northeast 542 624 33,000  Level FlightAware
02:47AM 51.3810 -52.4350 65° Northeast 542 624 33,000  Level FlightAware
02:48AM 51.4140 -52.3240 64° Northeast 542 624 33,000  Level FlightAware
02:49AM 51.5120 -51.9030 69° East 545 627 33,000  Level FlightAware
02:49AM 51.5450 -51.7800 67° East 545 627 33,000  Level FlightAware
02:50AM 51.5750 -51.6660 67° East 545 627 33,000  Level FlightAware
02:50AM 51.6050 -51.5510 67° East 545 627 33,000  Level FlightAware
02:51AM 51.6350 -51.4370 67° East 545 627 33,000  Level FlightAware
02:52AM 51.6650 -51.3220 67° East 545 627 33,000  Level FlightAware
02:52AM 51.6950 -51.2080 67° East 545 627 33,000  Level FlightAware
02:53AM 51.7260 -51.0930 66° East 545 627 33,000  Level FlightAware
02:53AM 51.7560 -50.9780 67° East 545 627 33,000  Level FlightAware
02:54AM 51.7860 -50.8640 67° East 545 627 33,000  Level FlightAware
02:55AM 51.8160 -50.7490 67° East 545 627 33,000  Level FlightAware
02:55AM 51.8460 -50.6340 67° East 545 627 33,000  Level FlightAware
02:56AM 51.9167 -50.2500 68° East 540 621 33,000  Level Gander Center
02:56AM 51.8760 -50.5190 67° East 545 627 33,000  Level FlightAware
02:56AM 51.9667 -50.0667 66° East 540 621 33,000  Level Gander Center
02:56AM 51.9060 -50.4040 67° East 545 627 33,000  Level FlightAware
02:57AM 51.9360 -50.2890 67° East 545 627 33,000  Level FlightAware
02:57AM 52.0167 -49.8667 68° East 550 633 33,000  Level Gander Center
02:58AM 51.9670 -50.1730 67° East 545 627 33,000  Level FlightAware
02:58AM 51.9970 -50.0580 67° East 545 627 33,000  Level FlightAware
03:00AM 52.1207 -49.4523 68° East  Level FlightAware Approximate
03:01AM 52.1089 -49.5651 68° East  Level FlightAware Approximate
03:07AM 52.4912 -47.9091 68° East  Level FlightAware Approximate
03:08AM 52.5425 -47.6865 69° East  Level FlightAware Approximate
03:09AM 52.5933 -47.4635 69° East  Level FlightAware Approximate
03:10AM 52.6438 -47.2399 70° East  Level FlightAware Approximate
03:11AM 52.6938 -47.0158 70° East  Level FlightAware Approximate
03:12AM 52.7434 -46.7911 70° East  Level FlightAware Approximate
03:13AM 52.7925 -46.5660 70° East  Level FlightAware Approximate
03:14AM 52.8413 -46.3404 70° East  Level FlightAware Approximate
03:15AM 52.8896 -46.1143 70° East  Level FlightAware Approximate
03:16AM 52.9375 -45.8876 71° East  Level FlightAware Approximate
03:17AM 52.9849 -45.6605 71° East  Level FlightAware Approximate
03:18AM 53.0320 -45.4328 71° East  Level FlightAware Approximate
03:19AM 53.0785 -45.2047 71° East  Level FlightAware Approximate
03:20AM 53.1247 -44.9761 71° East  Level FlightAware Approximate
03:21AM 53.1704 -44.7470 72° East  Level FlightAware Approximate
03:22AM 53.2156 -44.5174 72° East  Level FlightAware Approximate
03:23AM 53.2605 -44.2873 72° East  Level FlightAware Approximate
03:24AM 53.3048 -44.0567 72° East  Level FlightAware Approximate
03:25AM 53.3488 -43.8257 72° East  Level FlightAware Approximate
03:26AM 53.3923 -43.5942 72° East  Level FlightAware Approximate
03:27AM 53.4353 -43.3622 73° East  Level FlightAware Approximate
03:28AM 53.4779 -43.1297 73° East  Level FlightAware Approximate
03:29AM 53.5200 -42.8968 73° East  Level FlightAware Approximate
03:30AM 53.5617 -42.6634 73° East  Level FlightAware Approximate
03:31AM 53.6029 -42.4296 73° East  Level FlightAware Approximate
03:32AM 53.6437 -42.1953 74° East  Level FlightAware Approximate
03:33AM 53.6840 -41.9606 74° East  Level FlightAware Approximate
03:34AM 53.7239 -41.7254 74° East  Level FlightAware Approximate
03:35AM 53.7633 -41.4898 74° East  Level FlightAware Approximate
03:36AM 53.8022 -41.2537 74° East  Level FlightAware Approximate
03:37AM 53.8406 -41.0172 75° East  Level FlightAware Approximate
03:38AM 53.8787 -40.7802 75° East  Level FlightAware Approximate
03:39AM 53.9162 -40.5429 75° East  Level FlightAware Approximate
03:40AM 53.9532 -40.3051 75° East  Level FlightAware Approximate
03:41AM 53.9898 -40.0669 75° East  Level FlightAware Approximate
03:42AM 54.0072 -39.8227 86° East  Level FlightAware Approximate
03:43AM 54.0168 -39.5768 86° East  Level FlightAware Approximate
03:44AM 54.0260 -39.3308 86° East  Level FlightAware Approximate
03:45AM 54.0346 -39.0847 86° East  Level FlightAware Approximate
03:46AM 54.0427 -38.8385 87° East  Level FlightAware Approximate
03:47AM 54.0503 -38.5922 87° East  Level FlightAware Approximate
03:48AM 54.0574 -38.3458 87° East  Level FlightAware Approximate
03:49AM 54.0640 -38.0993 87° East  Level FlightAware Approximate
03:50AM 54.0700 -37.8527 87° East  Level FlightAware Approximate
03:51AM 54.0756 -37.6061 88° East  Level FlightAware Approximate
03:52AM 54.0807 -37.3594 88° East  Level FlightAware Approximate
03:53AM 54.0853 -37.1127 88° East  Level FlightAware Approximate
03:54AM 54.0894 -36.8659 88° East  Level FlightAware Approximate
03:55AM 54.0929 -36.6191 88° East  Level FlightAware Approximate
03:56AM 54.0960 -36.3722 89° East  Level FlightAware Approximate
03:57AM 54.0986 -36.1253 89° East  Level FlightAware Approximate
03:58AM 54.1006 -35.8783 89° East  Level FlightAware Approximate
03:59AM 54.1022 -35.6314 89° East  Level FlightAware Approximate
04:00AM 54.1032 -35.3844 89° East  Level FlightAware Approximate
04:01AM 54.1037 -35.1374 90° East  Level FlightAware Approximate
04:02AM 54.1038 -34.8904 90° East  Level FlightAware Approximate
04:03AM 54.1033 -34.6435 90° East  Level FlightAware Approximate
04:04AM 54.1023 -34.3965 90° East  Level FlightAware Approximate
04:05AM 54.1008 -34.1495 90° East  Level FlightAware Approximate
04:06AM 54.0988 -33.9026 91° East  Level FlightAware Approximate
04:07AM 54.0963 -33.6557 91° East  Level FlightAware Approximate
04:08AM 54.0933 -33.4088 91° East  Level FlightAware Approximate
04:09AM 54.0898 -33.1619 91° East  Level FlightAware Approximate
04:10AM 54.0858 -32.9151 91° East  Level FlightAware Approximate
04:11AM 54.0813 -32.6684 92° East  Level FlightAware Approximate
04:12AM 54.0762 -32.4217 92° East  Level FlightAware Approximate
04:13AM 54.0707 -32.1751 92° East  Level FlightAware Approximate
04:14AM 54.0647 -31.9285 92° East  Level FlightAware Approximate
04:15AM 54.0582 -31.6820 92° East  Level FlightAware Approximate
04:16AM 54.0511 -31.4356 93° East  Level FlightAware Approximate
04:17AM 54.0436 -31.1893 93° East  Level FlightAware Approximate
04:18AM 54.0355 -30.9431 93° East  Level FlightAware Approximate
04:19AM 54.0270 -30.6970 93° East  Level FlightAware Approximate
04:20AM 54.0179 -30.4510 93° East  Level FlightAware Approximate
04:21AM 54.0084 -30.2057 94° East  Level FlightAware Approximate
04:22AM 53.9978 -29.9605 95° East  Level FlightAware Approximate
04:23AM 53.9836 -29.7160 96° East  Level FlightAware Approximate
04:24AM 53.9689 -29.4717 96° East  Level FlightAware Approximate
04:25AM 53.9538 -29.2275 96° East  Level FlightAware Approximate
04:26AM 53.9381 -28.9835 96° East  Level FlightAware Approximate
04:27AM 53.9220 -28.7397 96° East  Level FlightAware Approximate
04:28AM 53.9053 -28.4961 97° East  Level FlightAware Approximate
04:29AM 53.8882 -28.2527 97° East  Level FlightAware Approximate
04:30AM 53.8706 -28.0094 97° East  Level FlightAware Approximate
04:31AM 53.8525 -27.7664 97° East  Level FlightAware Approximate
04:32AM 53.8339 -27.5236 97° East  Level FlightAware Approximate
04:33AM 53.8148 -27.2810 97° East  Level FlightAware Approximate
04:34AM 53.7952 -27.0387 98° East  Level FlightAware Approximate
04:35AM 53.7752 -26.7966 98° East  Level FlightAware Approximate
04:36AM 53.7546 -26.5547 98° East  Level FlightAware Approximate
04:37AM 53.7335 -26.3130 98° East  Level FlightAware Approximate
04:38AM 53.7120 -26.0716 98° East  Level FlightAware Approximate
04:39AM 53.6900 -25.8305 99° East  Level FlightAware Approximate
04:40AM 53.6675 -25.5896 99° East  Level FlightAware Approximate
04:41AM 53.6445 -25.3489 99° East  Level FlightAware Approximate
04:42AM 53.6211 -25.1085 99° East  Level FlightAware Approximate
04:43AM 53.5971 -24.8684 99° East  Level FlightAware Approximate
04:44AM 53.5727 -24.6286 100° East  Level FlightAware Approximate
04:45AM 53.5478 -24.3890 100° East  Level FlightAware Approximate
04:46AM 53.5224 -24.1498 100° East  Level FlightAware Approximate
04:47AM 53.4965 -23.9108 100° East  Level FlightAware Approximate
04:48AM 53.4702 -23.6721 100° East  Level FlightAware Approximate
04:49AM 53.4434 -23.4337 101° East  Level FlightAware Approximate
04:50AM 53.4161 -23.1956 101° East  Level FlightAware Approximate
04:51AM 53.3884 -22.9579 101° East  Level FlightAware Approximate
04:52AM 53.3601 -22.7204 101° East  Level FlightAware Approximate
04:53AM 53.3314 -22.4832 101° East  Level FlightAware Approximate
04:54AM 53.3022 -22.2464 102° East  Level FlightAware Approximate
04:55AM 53.2726 -22.0099 102° East  Level FlightAware Approximate
04:56AM 53.2425 -21.7738 102° East  Level FlightAware Approximate
04:57AM 53.2119 -21.5379 102° East  Level FlightAware Approximate
04:58AM 53.1809 -21.3024 102° East  Level FlightAware Approximate
04:59AM 53.1494 -21.0673 103° East  Level FlightAware Approximate
05:00AM 53.1174 -20.8325 103° East  Level FlightAware Approximate
05:01AM 53.0850 -20.5980 103° East  Level FlightAware Approximate
05:02AM 53.0521 -20.3639 103° East  Level FlightAware Approximate
05:03AM 53.0188 -20.1302 103° East  Level FlightAware Approximate
05:04AM 52.9997 -19.8938 90° East  Level FlightAware Approximate
05:05AM 52.9987 -19.6538 90° East  Level FlightAware Approximate
05:06AM 52.9972 -19.4138 90° East  Level FlightAware Approximate
05:07AM 52.9952 -19.1738 91° East  Level FlightAware Approximate
05:08AM 52.9928 -18.9338 91° East  Level FlightAware Approximate
05:09AM 52.9898 -18.6939 91° East  Level FlightAware Approximate
05:10AM 52.9864 -18.4540 91° East  Level FlightAware Approximate
05:11AM 52.9825 -18.2142 91° East  Level FlightAware Approximate
05:12AM 52.9781 -17.9744 92° East  Level FlightAware Approximate
05:13AM 52.9732 -17.7346 92° East  Level FlightAware Approximate
05:14AM 52.9679 -17.4949 92° East  Level FlightAware Approximate
05:15AM 52.9620 -17.2553 92° East  Level FlightAware Approximate
05:16AM 52.9557 -17.0157 92° East  Level FlightAware Approximate
05:17AM 52.9489 -16.7762 93° East  Level FlightAware Approximate
05:18AM 52.9416 -16.5368 93° East  Level FlightAware Approximate
05:19AM 52.9339 -16.2974 93° East  Level FlightAware Approximate
05:20AM 52.9256 -16.0582 93° East  Level FlightAware Approximate
05:21AM 52.9169 -15.8190 93° East  Level FlightAware Approximate
05:22AM 52.9077 -15.5800 94° East  Level FlightAware Approximate
05:23AM 52.8980 -15.3410 94° East  Level FlightAware Approximate
05:24AM 52.8878 -15.1022 94° East  Level FlightAware Approximate
05:25AM 52.8777 -14.8638 94° East  Level FlightAware Approximate
05:26AM 52.8675 -14.6255 94° East  Level FlightAware Approximate
05:27AM 52.8568 -14.3873 94° East  Level FlightAware Approximate
05:28AM 52.8457 -14.1492 94° East  Level FlightAware Approximate
05:29AM 52.8340 -13.9113 95° East  Level FlightAware Approximate
05:30AM 52.8219 -13.6735 95° East  Level FlightAware Approximate
05:31AM 52.8094 -13.4358 95° East  Level FlightAware Approximate
05:32AM 52.7963 -13.1982 95° East  Level FlightAware Approximate
05:33AM 52.7828 -12.9608 95° East  Level FlightAware Approximate
05:33AM 52.8400 -12.6680 95° East 510 587 37,000  Level FlightAware
05:34AM 52.7688 -12.7236 95° East  Level FlightAware Approximate
05:34AM 52.8280 -12.5070 97° East 510 587 37,000  Level FlightAware
05:35AM 52.8140 -12.3390 98° East 510 587 37,000  Level FlightAware
05:35AM 52.8030 -12.2000 97° East 512 589 37,000  Level FlightAware
05:36AM 52.7910 -12.0560 98° East 513 590 37,000  Level FlightAware
05:36AM 52.7800 -11.9230 98° East 516 594 37,000  Level FlightAware
05:37AM 52.7690 -11.7890 98° East 516 594 37,000  Level FlightAware
05:37AM 52.7570 -11.6500 98° East 520 598 37,000  Level FlightAware
05:38AM 52.7460 -11.5150 98° East 521 600 37,000  Level FlightAware
05:39AM 52.7350 -11.3900 98° East 523 602 37,000  Level FlightAware
05:39AM 52.7210 -11.2400 99° East 524 603 37,000  Level FlightAware
05:39AM 52.7170 -11.1900 98° East 525 604 37,000  Level FlightAware
05:41AM 52.6870 -10.8590 98° East 527 606 37,000  Level FlightAware
05:41AM 52.6740 -10.7240 99° East 528 608 37,000  Level FlightAware
05:42AM 52.6630 -10.6030 98° East 526 605 37,000  Level FlightAware
05:42AM 52.6610 -10.5830 99° East 526 605 37,000  Level FlightAware
05:43AM 52.6380 -10.3470 99° East 522 601 37,000  Level FlightAware
05:43AM 52.6250 -10.2160 99° East 519 597 37,000  Level FlightAware
05:44AM 52.6110 -10.0750 99° East 517 595 37,000  Level FlightAware
05:45AM 52.5980 -9.9410 99° East 515 593 37,000  Level FlightAware
05:45AM 52.5840 -9.8020 99° East 513 590 37,000  Level FlightAware
05:46AM 52.5710 -9.6780 100° East 512 589 37,000  Level FlightAware
05:47AM 52.5540 -9.5140 100° East 513 590 37,000  Level FlightAware
05:47AM 52.5440 -9.4150 99° East 515 593 37,000  Level FlightAware
05:48AM 52.5250 -9.2440 100° East 514 592 37,000  Level FlightAware
05:48AM 52.5090 -9.0910 100° East 512 589 37,000  Level FlightAware
05:49AM 52.4960 -8.9750 100° East 511 588 37,000  Level FlightAware
05:49AM 52.4810 -8.8380 100° East 512 589 37,000  Level FlightAware
05:50AM 52.4620 -8.6630 100° East 515 593 37,000  Level FlightAware
05:51AM 52.4480 -8.5430 101° East 516 594 37,000  Level FlightAware
05:51AM 52.4322 -8.4018 101° East 1 1 37,000  Level FlightAware UK
05:51AM 52.4330 -8.4080 101° East 516 594 37,000  Level FlightAware
05:52AM 52.4188 -8.2858 101° East 1 1 37,000  Level FlightAware UK
05:52AM 52.4180 -8.2760 101° East 518 596 37,000  Level FlightAware
05:53AM 52.4020 -8.1390 101° East 519 597 37,000  Level FlightAware
05:53AM 52.3860 -8.0090 101° East 518 596 37,000  Level FlightAware
05:54AM 52.3720 -7.8910 101° East 516 594 37,000  Level FlightAware
05:54AM 52.3520 -7.7170 101° East 515 593 37,000  Level FlightAware
05:55AM 52.3366 -7.5957 101° East 1 1 37,000  Level FlightAware UK
05:55AM 52.3380 -7.6090 101° East 513 590 37,000  Level FlightAware
05:55AM 52.3228 -7.4816 101° East 1 1 37,000  Level FlightAware UK
05:55AM 52.3210 -7.4710 101° East 515 593 37,000  Level FlightAware
05:56AM 52.3070 -7.3580 101° East 519 597 37,000  Level FlightAware
05:57AM 52.2880 -7.2030 101° East 519 597 37,000  Level FlightAware
05:57AM 52.2710 -7.0670 101° East 522 601 37,000  Level FlightAware
05:58AM 52.2540 -6.9330 102° East 522 601 37,000  Level FlightAware
05:58AM 52.2370 -6.7980 102° East 522 601 37,000  Level FlightAware
05:59AM 52.2203 -6.6727 102° East 502 578 37,000  Level FlightAware UK
05:59AM 52.2190 -6.6630 102° East 522 601 37,000  Level FlightAware
05:59AM 52.2010 -6.5260 102° East 521 600 37,000  Level FlightAware
06:00AM 52.1899 -6.4414 102° East 500 575 37,000  Level FlightAware UK
06:00AM 52.1715 -6.3031 102° East 500 575 37,000  Level FlightAware UK
06:01AM 52.1680 -6.2760 102° East 521 600 37,000  Level FlightAware
06:01AM 52.1500 -6.1410 102° East 522 601 37,000  Level FlightAware
06:02AM 52.1300 -6.0010 103° East 522 601 37,000  Level FlightAware
06:02AM 52.1140 -5.8840 103° East 523 602 37,000  Level FlightAware
06:02AM 52.1120 -5.8680 101° East 523 602 37,000  Level FlightAware
06:03AM 52.0930 -5.7277 101° East 498 573 37,000  Level FlightAware UK
06:03AM 52.0790 -5.6250 101° East 525 604 37,000  Level FlightAware
06:04AM 52.0580 -5.4800 103° East 525 604 37,000  Level FlightAware
06:05AM 52.0440 -5.3530 103° East 531 611 37,000  Level FlightAware
06:05AM 52.0422 -5.3334 103° East 496 571 37,000  Level FlightAware UK
06:05AM 52.0290 -5.2130 103° East 532 612 37,000  Level FlightAware
06:05AM 52.0266 -5.1923 103° East 496 571 37,000  Level FlightAware UK
06:06AM 52.0130 -5.0710 100° East 531 611 37,000  Level FlightAware
06:07AM 51.9930 -4.9010 101° East 533 613 37,000  Level FlightAware
06:07AM 51.9771 -4.7685 101° East 498 573 37,000  Level FlightAware UK
06:07AM 51.9760 -4.7590 101° East 532 612 37,000  Level FlightAware
06:08AM 51.9597 -4.6276 101° East 498 573 37,000  Level FlightAware UK
06:08AM 51.9590 -4.6230 101° East 533 613 37,000  Level FlightAware
06:08AM 51.9430 -4.4900 101° East 533 613 37,000  Level FlightAware
06:09AM 51.9260 -4.3520 101° East 533 613 37,000  Level FlightAware
06:09AM 51.9090 -4.2200 102° East 534 615 37,000  Level FlightAware
06:10AM 51.8910 -4.0780 102° East 535 616 37,000  Level FlightAware
06:10AM 51.8895 -4.0644 102° East 500 575 37,000  Level FlightAware UK
06:11AM 51.8760 -3.9580 102° East 535 616 37,000  Level FlightAware
06:11AM 51.8745 -3.9460 102° East 500 575 37,000  Level FlightAware UK
06:11AM 51.8594 -3.8283 102° East 500 575 37,000  Level FlightAware UK
06:11AM 51.8590 -3.8260 102° East 536 617 37,000  Level FlightAware
06:12AM 51.8370 -3.6520 101° East 536 617 37,000  Level FlightAware
06:12AM 51.8210 -3.5300 102° East 536 617 37,000  Level FlightAware
06:13AM 51.8019 -3.3887 102° East 537 618 37,000  Level FlightAware ADS-B
06:14AM 51.7833 -3.2487 102° East 537 618 37,000  Level FlightAware ADS-B
06:14AM 51.7665 -3.1237 102° East 536 617 37,000  Level FlightAware ADS-B
06:15AM 51.7496 -3.0003 102° East 536 617 37,000  Level FlightAware ADS-B
06:15AM 51.7302 -2.8592 102° East 536 617 37,000  Level FlightAware ADS-B
06:16AM 51.7123 -2.7293 102° East 536 617 37,000  Level FlightAware ADS-B
06:16AM 51.6948 -2.6043 103° East 536 617 37,000  Level FlightAware ADS-B
06:17AM 51.6781 -2.4857 103° East 536 617 37,000  Level FlightAware ADS-B
06:17AM 51.6614 -2.3677 103° East 536 617 37,000  Level FlightAware ADS-B
06:18AM 51.6440 -2.2458 103° East 536 617 37,000  Level FlightAware ADS-B
06:18AM 51.6260 -2.1210 103° East 536 617 37,000  Level FlightAware ADS-B
06:19AM 51.6086 -2.0011 103° East 535 616 37,000  Level FlightAware ADS-B
06:19AM 51.5894 -1.8704 103° East 536 617 37,000  Level FlightAware ADS-B
06:20AM 51.5715 -1.7490 103° East 535 616 37,000  Level FlightAware ADS-B
06:20AM 51.5543 -1.6326 103° East 535 616 37,000  Level FlightAware ADS-B
06:21AM 51.5360 -1.5103 103° East 536 617 37,000  Level FlightAware ADS-B
06:22AM 51.5161 -1.3790 104° East 535 616 37,000  Level FlightAware ADS-B
06:22AM 51.4986 -1.2612 103° East 537 618 37,000  Level FlightAware ADS-B
06:23AM 51.4847 -1.1478 101° East 537 618 37,000  Level FlightAware ADS-B
06:23AM 51.4722 -1.0149 99° East 539 620 37,000  Level FlightAware ADS-B
06:24AM 51.4618 -0.8848 97° East 538 619 37,000  Level FlightAware ADS-B
06:24AM 51.4516 -0.7607 97° East 537 618 37,000  Level FlightAware ADS-B
06:25AM 51.4411 -0.6379 98° East 537 618 37,000  Level FlightAware ADS-B
06:25AM 51.4304 -0.5170 98° East 536 617 37,000  Level FlightAware ADS-B
06:26AM 51.4192 -0.3961 98° East 536 617 37,000  Level FlightAware ADS-B
06:26AM 51.4079 -0.2761 99° East 536 617 37,000  Level FlightAware ADS-B
06:27AM 51.3960 -0.1509 99° East 535 616 37,000  Level FlightAware ADS-B
06:27AM 51.3845 -0.0313 99° East 534 615 37,000  Level FlightAware ADS-B
06:28AM 51.3731 0.0863 99° East 533 613 37,000  Level FlightAware ADS-B
06:28AM 51.3613 0.2060 99° East 533 613 37,000  Level FlightAware ADS-B
06:29AM 51.3495 0.3248 99° East 533 613 37,000  Level FlightAware ADS-B
06:29AM 51.3349 0.4720 99° East 533 613 37,000  Level FlightAware ADS-B
06:30AM 51.3212 0.6074 99° East 533 613 37,000  Level FlightAware ADS-B
06:31AM 51.3087 0.7300 99° East 532 612 37,000  Level FlightAware ADS-B
06:31AM 51.2960 0.8543 99° East 531 611 37,000  Level FlightAware ADS-B
06:32AM 51.2832 0.9765 99° East 530 610 37,000  Level FlightAware ADS-B
06:32AM 51.2702 1.0993 100° East 529 609 37,000  Level FlightAware ADS-B
06:33AM 51.2580 1.2170 99° East 528 608 37,000  Level FlightAware
06:33AM 51.2380 1.3570 103° East 524 603 37,000  Level FlightAware
06:34AM 51.2080 1.4780 112° Southeast 521 600 37,000  Level FlightAware
06:34AM 51.1770 1.5850 115° Southeast 521 600 37,000  Level FlightAware
06:35AM 51.1410 1.7060 115° Southeast 522 601 37,000  Level FlightAware
06:36AM 51.1040 1.8380 115° Southeast 523 602 37,000  Level FlightAware
06:36AM 51.1007 1.8471 115° Southeast 496 571 37,000  Level FlightAware UK
06:36AM 51.0680 1.9640 114° Southeast 522 601 37,000  Level FlightAware
06:37AM 51.0310 2.0930 114° Southeast 523 602 37,000  Level FlightAware
06:37AM 51.0010 2.1990 114° Southeast 524 603 37,000  Level FlightAware
06:38AM 50.9660 2.3220 114° Southeast 523 602 37,000  Level FlightAware
06:39AM 50.9277 2.4567 114° Southeast 496 571 37,000  Level FlightAware UK
06:39AM 50.9280 2.4550 114° Southeast 524 603 37,000  Level FlightAware
06:39AM 50.8974 2.5620 114° Southeast 496 571 37,000  Level FlightAware UK
06:39AM 50.8910 2.5840 114° Southeast 524 603 37,000  Level FlightAware
06:40AM 50.8580 2.6930 116° Southeast 524 603 37,000  Level FlightAware
06:40AM 50.8210 2.8150 116° Southeast 523 602 37,000  Level FlightAware
06:41AM 50.7770 2.9630 115° Southeast 523 602 37,000  Level FlightAware
06:41AM 50.7450 3.0680 116° Southeast 524 603 37,000  Level FlightAware
06:42AM 50.7040 3.2050 115° Southeast 523 602 37,000  Level FlightAware
06:43AM 50.6663 3.3284 115° Southeast 498 573 37,000  Level FlightAware UK
06:43AM 50.6670 3.3240 115° Southeast 522 601 37,000  Level FlightAware
06:43AM 50.6360 3.4260 116° Southeast 523 602 37,000  Level FlightAware
06:44AM 50.5980 3.5480 116° Southeast 524 603 37,000  Level FlightAware
06:44AM 50.5630 3.6640 115° Southeast 523 602 37,000  Level FlightAware
06:45AM 50.5240 3.7870 116° Southeast 522 601 37,000  Level FlightAware
06:46AM 50.4870 3.9070 116° Southeast 522 601 37,000  Level FlightAware
06:46AM 50.4450 4.0410 116° Southeast 518 596 37,000  Level FlightAware
06:47AM 50.4130 4.1420 116° Southeast 518 596 37,000  Level FlightAware
06:47AM 50.3750 4.2610 116° Southeast 518 596 37,000  Level FlightAware
06:47AM 50.3669 4.2905 116° Southeast 500 575 37,000  Level FlightAware UK
06:48AM 50.3370 4.3800 117° Southeast 519 597 37,000  Level FlightAware
06:48AM 50.3030 4.4880 116° Southeast 518 596 37,000  Level FlightAware
06:49AM 50.2650 4.6050 117° Southeast 517 595 37,000  Level FlightAware
06:50AM 50.2097 4.7720 117° Southeast 1 1 37,000  Level FlightAware UK
06:50AM 50.1770 4.8750 117° Southeast 521 600 37,000  Level FlightAware
06:51AM 50.1390 4.9920 117° Southeast 521 600 37,000  Level FlightAware
06:52AM 50.1010 5.1090 117° Southeast 521 600 37,000  Level FlightAware
06:52AM 50.0660 5.2140 117° Southeast 521 600 37,000  Level FlightAware
06:53AM 50.0180 5.3600 117° Southeast 521 600 37,000  Level FlightAware
06:53AM 49.9840 5.4620 117° Southeast 520 598 37,000  Level FlightAware
06:54AM 49.9470 5.5730 117° Southeast 521 600 37,000  Level FlightAware
06:54AM 49.9090 5.6860 118° Southeast 520 598 37,000  Level FlightAware
06:55AM 49.8690 5.8050 118° Southeast 520 598 37,000  Level FlightAware
06:56AM 49.8230 5.9380 118° Southeast 521 600 37,000  Level FlightAware
06:56AM 49.7890 6.0400 117° Southeast 522 601 37,000  Level FlightAware
06:57AM 49.7520 6.1480 118° Southeast 522 601 37,000  Level FlightAware
06:57AM 49.7160 6.2530 118° Southeast 522 601 37,000  Level FlightAware
06:58AM 49.6750 6.3730 118° Southeast 522 601 37,000  Level FlightAware
06:59AM 49.6320 6.4950 119° Southeast 523 602 37,000  Level FlightAware
06:59AM 49.5880 6.6230 118° Southeast 523 602 37,000  Level FlightAware
06:59AM 49.5660 6.6860 118° Southeast 523 602 37,000  Level FlightAware
07:01AM 49.4910 6.8990 118° Southeast 520 598 37,000  Level FlightAware
07:01AM 49.4550 7.0010 118° Southeast 521 600 37,000  Level FlightAware
07:02AM 49.4050 7.1400 119° Southeast 525 604 37,000  Level FlightAware
07:02AM 49.3690 7.2410 119° Southeast 525 604 37,000  Level FlightAware
07:03AM 49.3520 7.2890 119° Southeast 525 604 37,000  Level FlightAware
07:04AM 49.2650 7.5300 119° Southeast 521 600 37,000  Level FlightAware
07:05AM 49.2120 7.6780 119° Southeast 521 600 37,000  Level FlightAware
07:05AM 49.1650 7.8050 119° Southeast 525 604 37,000  Level FlightAware
07:06AM 49.1170 7.9360 119° Southeast 524 603 37,000  Level FlightAware
07:06AM 49.0810 8.0340 119° Southeast 524 603 37,000  Level FlightAware
07:07AM 49.0350 8.1600 119° Southeast 523 602 37,000  Level FlightAware
07:08AM 48.9920 8.2750 120° Southeast 519 597 37,000  Level FlightAware
07:08AM 48.9450 8.3780 125° Southeast 521 600 37,000  Level FlightAware
07:09AM 48.8880 8.4730 132° Southeast 514 592 37,000  Level FlightAware
07:10AM 48.7750 8.6530 134° Southeast 519 597 37,000  Level FlightAware
07:11AM 48.6950 8.7800 134° Southeast 513 590 37,000  Level FlightAware
07:11AM 48.6390 8.8680 134° Southeast 518 596 37,000  Level FlightAware
07:12AM 48.5720 8.9720 134° Southeast 519 597 37,000  Level FlightAware
07:13AM 48.5170 9.0570 134° Southeast 519 597 37,000  Level FlightAware
07:13AM 48.4590 9.1480 134° Southeast 519 597 37,000  Level FlightAware
07:14AM 48.3990 9.2410 134° Southeast 515 593 37,000  Level FlightAware
07:14AM 48.3390 9.3330 134° Southeast 517 595 37,000  Level FlightAware
07:15AM 48.2700 9.4380 135° Southeast 523 602 37,000  Level FlightAware
07:16AM 48.2000 9.5340 138° Southeast 523 602 37,000  Level FlightAware
07:16AM 48.1360 9.6170 139° Southeast 524 603 37,000  Level FlightAware
07:17AM 48.0610 9.7130 139° Southeast 524 603 37,000  Level FlightAware
07:18AM 47.9910 9.8020 140° Southeast 525 604 37,000  Level FlightAware
07:18AM 47.9210 9.8920 139° Southeast 526 605 37,000  Level FlightAware
07:19AM 47.8500 9.9810 140° Southeast 526 605 37,000  Level FlightAware
07:19AM 47.7810 10.0620 142° Southeast 526 605 37,000  Level FlightAware
07:20AM 47.7660 10.0790 143° Southeast 526 605 37,000  Level FlightAware
07:21AM 47.6470 10.2100 143° Southeast 521 600 37,000  Level FlightAware
07:21AM 47.5700 10.2940 144° Southeast 521 600 37,000  Level FlightAware
07:22AM 47.5000 10.3710 143° Southeast 522 601 37,000  Level FlightAware
07:22AM 47.4320 10.4450 144° Southeast 529 609 37,000  Level FlightAware
07:24AM 47.2870 10.5700 150° Southeast 528 608 37,000  Level FlightAware
07:24AM 47.2040 10.6360 152° Southeast 527 606 37,000  Level FlightAware
07:25AM 47.1340 10.6890 153° Southeast 529 609 37,000  Level FlightAware
07:25AM 47.0630 10.7810 139° Southeast 533 613 37,000  Level FlightAware
07:26AM 47.0150 10.8710 128° Southeast 534 615 37,000  Level FlightAware
07:27AM 46.9490 10.9970 127° Southeast 535 616 37,000  Level FlightAware
07:27AM 46.9020 11.0870 127° Southeast 535 616 37,000  Level FlightAware
07:28AM 46.8420 11.1990 128° Southeast 534 615 37,000  Level FlightAware
07:28AM 46.7950 11.2880 128° Southeast 534 615 37,000  Level FlightAware
07:29AM 46.7380 11.3950 128° Southeast 534 615 37,000  Level FlightAware
07:29AM 46.6870 11.4890 128° Southeast 533 613 37,000  Level FlightAware
07:30AM 46.6280 11.5980 128° Southeast 532 612 37,000  Level FlightAware
07:31AM 46.5790 11.6890 128° Southeast 531 611 37,000  Level FlightAware
07:31AM 46.5210 11.7960 128° Southeast 531 611 37,000  Level FlightAware
07:32AM 46.4740 11.8820 128° Southeast 531 611 37,000  Level FlightAware
07:32AM 46.4140 11.9910 129° Southeast 531 611 37,000  Level FlightAware
07:33AM 46.3560 12.0970 128° Southeast 530 610 37,000  Level FlightAware
07:34AM 46.3080 12.1850 128° Southeast 531 611 37,000  Level FlightAware
07:34AM 46.2520 12.2850 129° Southeast 531 611 37,000  Level FlightAware
07:35AM 46.1920 12.3940 128° Southeast 531 611 37,000  Level FlightAware
07:35AM 46.1410 12.4860 129° Southeast 530 610 37,000  Level FlightAware
07:36AM 46.0790 12.5970 129° Southeast 525 604 37,000  Level FlightAware
07:37AM 46.0230 12.6970 129° Southeast 525 604 37,000  Level FlightAware
07:37AM 45.9690 12.7920 129° Southeast 525 604 37,000  Level FlightAware
07:38AM 45.9150 12.8870 129° Southeast 525 604 37,000  Level FlightAware
07:38AM 45.8580 12.9880 129° Southeast 531 611 37,000  Level FlightAware
07:39AM 45.8080 13.0770 129° Southeast 531 611 37,000  Level FlightAware
07:39AM 45.7740 13.1370 129° Southeast 530 610 37,000  Level FlightAware
07:41AM 45.6760 13.3070 129° Southeast 530 610 37,000  Level FlightAware
07:41AM 45.6020 13.4360 129° Southeast 530 610 37,000  Level FlightAware
07:42AM 45.5420 13.5390 130° Southeast 531 611 37,000  Level FlightAware
07:42AM 45.5180 13.5810 129° Southeast 531 611 37,000  Level FlightAware
07:43AM 45.4230 13.7450 129° Southeast 531 611 37,000  Level FlightAware
07:44AM 45.3590 13.8530 130° Southeast 532 612 37,000  Level FlightAware
07:44AM 45.3050 13.9460 130° Southeast 530 610 37,000  Level FlightAware
07:45AM 45.2430 14.0510 130° Southeast 530 610 37,000  Level FlightAware
07:46AM 45.1790 14.1590 130° Southeast 530 610 37,000  Level FlightAware
07:46AM 45.1340 14.2340 130° Southeast 530 610 37,000  Level FlightAware
07:47AM 45.0710 14.3400 130° Southeast 530 610 37,000  Level FlightAware
07:48AM 45.0010 14.4570 130° Southeast 530 610 37,000  Level FlightAware
07:48AM 44.9440 14.5530 130° Southeast 524 603 37,000  Level FlightAware
07:49AM 44.8850 14.6490 131° Southeast 529 609 37,000  Level FlightAware
07:49AM 44.8340 14.7350 130° Southeast 529 609 37,000  Level FlightAware
07:50AM 44.7680 14.8430 131° Southeast 523 602 37,000  Level FlightAware
07:51AM 44.7030 14.9500 130° Southeast 524 603 37,000  Level FlightAware
07:51AM 44.6460 15.0420 131° Southeast 525 604 37,000  Level FlightAware
07:52AM 44.6030 15.1120 131° Southeast 526 605 37,000  Level FlightAware
07:53AM 44.5350 15.2240 130° Southeast 525 604 37,000  Level FlightAware
07:53AM 44.4920 15.2930 131° Southeast 526 605 37,000  Level FlightAware
07:54AM 44.4120 15.4220 131° Southeast 526 605 37,000  Level FlightAware
07:54AM 44.3620 15.5020 131° Southeast 526 605 37,000  Level FlightAware
07:55AM 44.3020 15.5990 131° Southeast 525 604 37,000  Level FlightAware
07:56AM 44.2430 15.6930 131° Southeast 526 605 37,000  Level FlightAware
07:56AM 44.1780 15.7980 131° Southeast 531 611 37,000  Level FlightAware
07:57AM 44.1160 15.8970 131° Southeast 531 611 37,000  Level FlightAware
07:57AM 44.0590 15.9880 131° Southeast 530 610 37,000  Level FlightAware
07:58AM 44.0020 16.0770 132° Southeast 530 610 37,000  Level FlightAware
07:59AM 43.9440 16.1690 131° Southeast 530 610 37,000  Level FlightAware
07:59AM 43.8840 16.2640 131° Southeast 530 610 37,000  Level FlightAware
07:59AM 43.8580 16.3030 133° Southeast 529 609 37,000  Level FlightAware
08:01AM 43.7360 16.4950 131° Southeast 527 606 37,000  Level FlightAware
08:01AM 43.6820 16.5780 132° Southeast 526 605 37,000  Level FlightAware
08:02AM 43.6200 16.6750 131° Southeast 526 605 37,000  Level FlightAware
08:02AM 43.5780 16.7390 132° Southeast 526 605 37,000  Level FlightAware
08:03AM 43.4920 16.8720 132° Southeast 529 609 37,000  Level FlightAware
08:04AM 43.3970 17.0170 132° Southeast 530 610 37,000  Level FlightAware
08:05AM 43.3380 17.1070 132° Southeast 529 609 37,000  Level FlightAware
08:05AM 43.2760 17.2020 132° Southeast 528 608 37,000  Level FlightAware
08:06AM 43.2230 17.2810 133° Southeast 528 608 37,000  Level FlightAware
08:07AM 43.1610 17.3760 132° Southeast 528 608 37,000  Level FlightAware
08:07AM 43.1090 17.4540 132° Southeast 528 608 37,000  Level FlightAware
08:08AM 43.0500 17.5420 133° Southeast 528 608 37,000  Level FlightAware
08:08AM 42.9920 17.6300 132° Southeast 528 608 37,000  Level FlightAware
08:09AM 42.9390 17.7090 132° Southeast 528 608 37,000  Level FlightAware
08:09AM 42.8770 17.8010 133° Southeast 527 606 37,000  Level FlightAware
08:10AM 42.8150 17.8930 133° Southeast 527 606 37,000  Level FlightAware
08:11AM 42.7640 17.9680 133° Southeast 526 605 37,000  Level FlightAware
08:11AM 42.6970 18.0680 132° Southeast 525 604 37,000  Level FlightAware
08:12AM 42.6550 18.1300 133° Southeast 523 602 37,000  Level FlightAware
08:13AM 42.5710 18.2480 134° Southeast 521 600 37,000  Level FlightAware
08:13AM 42.5120 18.3260 136° Southeast 519 597 37,000  Level FlightAware
08:14AM 42.4540 18.4040 135° Southeast 517 595 37,000  Level FlightAware
08:14AM 42.3950 18.4840 135° Southeast 516 594 37,000  Level FlightAware
08:15AM 42.3380 18.5610 135° Southeast 515 593 37,000  Level FlightAware
08:15AM 42.2740 18.6480 135° Southeast 514 592 37,000  Level FlightAware
08:16AM 42.2220 18.7170 135° Southeast 514 592 37,000  Level FlightAware
08:17AM 42.1590 18.8010 135° Southeast 514 592 37,000  Level FlightAware
08:17AM 42.0880 18.8960 135° Southeast 514 592 37,000  Level FlightAware
08:18AM 42.0340 18.9680 135° Southeast 515 593 37,000  Level FlightAware
08:19AM 41.9650 19.0590 136° Southeast 516 594 37,000  Level FlightAware
08:19AM 41.9120 19.1290 135° Southeast 515 593 37,000  Level FlightAware
08:19AM 41.8790 19.1720 136° Southeast 515 593 37,000  Level FlightAware
08:20AM 41.8080 19.2660 135° Southeast 514 592 37,000  Level FlightAware
08:21AM 41.7050 19.4000 136° Southeast 515 593 37,000  Level FlightAware
08:22AM 41.6100 19.5240 136° Southeast 516 594 37,000  Level FlightAware
08:23AM 41.5570 19.5940 135° Southeast 517 595 37,000  Level FlightAware
08:23AM 41.4950 19.6740 136° Southeast 518 596 37,000  Level FlightAware
08:24AM 41.4400 19.7450 136° Southeast 517 595 37,000  Level FlightAware
08:25AM 41.3260 19.8910 136° Southeast 516 594 37,000  Level FlightAware
08:25AM 41.2660 19.9680 136° Southeast 514 592 37,000  Level FlightAware
08:26AM 41.2020 20.0510 136° Southeast 512 589 37,000  Level FlightAware
08:27AM 41.1360 20.1340 137° Southeast 512 589 37,000  Level FlightAware
08:27AM 41.0620 20.2280 136° Southeast 511 588 37,000  Level FlightAware
08:28AM 40.9960 20.3120 136° Southeast 509 586 37,000  Level FlightAware
08:29AM 40.9390 20.3840 136° Southeast 509 586 37,000  Level FlightAware
08:29AM 40.8900 20.4460 136° Southeast 509 586 37,000  Level FlightAware
08:30AM 40.8230 20.5300 136° Southeast 509 586 37,000  Level FlightAware
08:30AM 40.7670 20.6000 137° Southeast 509 586 37,000  Level FlightAware
08:31AM 40.7040 20.6790 136° Southeast 509 586 37,000  Level FlightAware
08:31AM 40.6430 20.7550 137° Southeast 509 586 37,000  Level FlightAware
08:32AM 40.5830 20.8300 136° Southeast 509 586 37,000  Level FlightAware
08:33AM 40.5200 20.9080 137° Southeast 510 587 37,000  Level FlightAware
08:33AM 40.4610 20.9800 137° Southeast 509 586 37,000  Level FlightAware
08:34AM 40.3960 21.0550 139° Southeast 509 586 37,000  Level FlightAware
08:34AM 40.3350 21.1240 139° Southeast 510 587 37,000  Level FlightAware
08:35AM 40.2700 21.1980 139° Southeast 509 586 37,000  Level FlightAware
08:36AM 40.2100 21.2670 139° Southeast 510 587 37,000  Level FlightAware
08:36AM 40.1530 21.3330 138° Southeast 511 588 37,000  Level FlightAware
08:37AM 40.0890 21.4060 139° Southeast 512 589 37,000  Level FlightAware
08:37AM 40.0200 21.4840 139° Southeast 513 590 37,000  Level FlightAware
08:38AM 39.9630 21.5490 139° Southeast 513 590 37,000  Level FlightAware
08:38AM 39.8980 21.6220 139° Southeast 514 592 37,000  Level FlightAware
08:39AM 39.8390 21.6890 139° Southeast 516 594 37,000  Level FlightAware
08:39AM 39.7920 21.7420 139° Southeast 516 594 37,000  Level FlightAware
08:40AM 39.7070 21.8380 139° Southeast 512 589 37,000  Level FlightAware
08:41AM 39.6140 21.9410 140° Southeast 517 595 37,000  Level FlightAware
08:42AM 39.5630 21.9980 139° Southeast 517 595 37,000  Level FlightAware
08:42AM 39.5070 22.0610 139° Southeast 516 594 37,000  Level FlightAware
08:43AM 39.3860 22.1940 140° Southeast 517 595 37,000  Level FlightAware
08:44AM 39.3250 22.2620 139° Southeast 517 595 37,000  Level FlightAware
08:44AM 39.2600 22.3330 140° Southeast 515 593 37,000  Level FlightAware
08:45AM 39.2040 22.3950 139° Southeast 515 593 37,000  Level FlightAware
08:46AM 39.1270 22.4800 139° Southeast 514 592 37,000  Level FlightAware
08:46AM 39.0670 22.5460 139° Southeast 514 592 37,000  Level FlightAware
08:47AM 39.0050 22.6130 140° Southeast 514 592 37,000  Level FlightAware
08:47AM 38.9370 22.6870 140° Southeast 514 592 37,000  Level FlightAware
08:48AM 38.8720 22.7580 140° Southeast 515 593 37,000  Level FlightAware
08:48AM 38.8130 22.8210 140° Southeast 515 593 37,000  Level FlightAware
08:49AM 38.7470 22.8930 140° Southeast 514 592 37,000  Level FlightAware
08:50AM 38.6800 22.9660 140° Southeast 514 592 37,000  Level FlightAware
08:50AM 38.6140 23.0360 140° Southeast 513 590 37,000  Level FlightAware
08:51AM 38.5420 23.1130 140° Southeast 514 592 37,000  Level FlightAware
08:51AM 38.4830 23.1760 140° Southeast 514 592 37,000  Level FlightAware
08:52AM 38.4200 23.2430 140° Southeast 513 590 37,000  Level FlightAware
08:53AM 38.3530 23.3150 140° Southeast 513 590 37,000  Level FlightAware
08:53AM 38.2930 23.3790 140° Southeast 513 590 37,000  Level FlightAware
08:54AM 38.2280 23.4480 140° Southeast 513 590 37,000  Level FlightAware
08:54AM 38.1630 23.5170 140° Southeast 511 588 37,000  Level FlightAware
08:55AM 38.0980 23.5860 140° Southeast 512 589 37,000  Level FlightAware
08:56AM 38.0360 23.6510 140° Southeast 511 588 37,000  Level FlightAware
08:56AM 37.9670 23.7230 141° Southeast 509 586 37,000  Level FlightAware
08:57AM 37.9090 23.7850 140° Southeast 509 586 37,000  Level FlightAware
08:57AM 37.8460 23.8680 134° Southeast 515 593 37,000  Level FlightAware
08:58AM 37.7980 23.9410 130° Southeast 515 593 37,000  Level FlightAware
08:58AM 37.7390 24.0290 130° Southeast 515 593 37,000  Level FlightAware
08:59AM 37.6820 24.1140 130° Southeast 515 593 37,000  Level FlightAware
08:59AM 37.6470 24.1660 130° Southeast 515 593 37,000  Level FlightAware
09:01AM 37.5280 24.3570 128° Southeast 521 600 37,000  Level FlightAware
09:02AM 37.4620 24.4900 122° Southeast 522 601 37,000  Level FlightAware
09:02AM 37.4210 24.5710 122° Southeast 522 601 37,000  Level FlightAware
09:03AM 37.3730 24.6670 122° Southeast 523 602 37,000  Level FlightAware
09:03AM 37.3250 24.7610 123° Southeast 522 601 37,000  Level FlightAware
09:04AM 37.2770 24.8560 122° Southeast 524 603 37,000  Level FlightAware
09:05AM 37.2310 24.9470 122° Southeast 525 604 37,000  Level FlightAware
09:05AM 37.1960 25.0170 122° Southeast 526 605 37,000  Level FlightAware
09:06AM 37.1090 25.1860 123° Southeast 528 608 37,000  Level FlightAware
09:07AM 37.0670 25.2680 123° Southeast 529 609 37,000  Level FlightAware
09:07AM 37.0220 25.3550 123° Southeast 529 609 37,000  Level FlightAware
09:08AM 36.9710 25.4540 123° Southeast 531 611 37,000  Level FlightAware
09:08AM 36.9260 25.5420 123° Southeast 531 611 37,000  Level FlightAware
09:09AM 36.8790 25.6320 123° Southeast 533 613 37,000  Level FlightAware
09:10AM 36.8330 25.7220 123° Southeast 535 616 37,000  Level FlightAware
09:10AM 36.7820 25.8200 123° Southeast 535 616 37,000  Level FlightAware
09:11AM 36.7430 25.8950 123° Southeast 535 616 37,000  Level FlightAware
09:11AM 36.7100 25.9570 124° Southeast 537 618 37,000  Level FlightAware
09:12AM 36.6410 26.0890 123° Southeast 536 617 37,000  Level FlightAware
09:13AM 36.5910 26.1840 123° Southeast 537 618 37,000  Level FlightAware
09:13AM 36.5560 26.2590 120° Southeast 539 620 37,000  Level FlightAware
09:14AM 36.5090 26.3720 117° Southeast 544 626 37,000  Level FlightAware
09:14AM 36.4690 26.4720 116° Southeast 544 626 37,000  Level FlightAware
09:15AM 36.4290 26.5740 116° Southeast 544 626 37,000  Level FlightAware
09:16AM 36.3840 26.6850 117° Southeast 545 627 37,000  Level FlightAware
09:16AM 36.3430 26.7860 117° Southeast 546 628 37,000  Level FlightAware
09:17AM 36.3020 26.8870 117° Southeast 545 627 37,000  Level FlightAware
09:18AM 36.2560 27.0020 116° Southeast 545 627 37,000  Level FlightAware
09:18AM 36.2030 27.1280 118° Southeast 546 628 37,000  Level FlightAware
09:19AM 36.1610 27.2310 117° Southeast 546 628 37,000  Level FlightAware
09:19AM 36.1490 27.2580 122° Southeast 546 628 37,000  Level FlightAware
09:22AM 35.9675 27.6267 121° Southeast  Level Estimated
09:23AM 35.8923 27.7793 121° Southeast  Level Estimated
09:24AM 35.8168 27.9317 121° Southeast  Level Estimated
09:25AM 35.7412 28.0837 121° Southeast  Level Estimated
09:26AM 35.6653 28.2355 122° Southeast  Level Estimated
09:27AM 35.5893 28.3870 122° Southeast  Level Estimated
09:28AM 35.5131 28.5382 122° Southeast  Level Estimated
09:29AM 35.6070 28.6120 116° Southeast 546 628 37,000  Level FlightAware
09:29AM 35.3310 28.7760 154° Southeast 535 616 37,000  Level FlightAware
09:30AM 35.2910 28.8420 127° Southeast 533 613 37,000  Level FlightAware
09:30AM 35.2320 28.9400 126° Southeast 528 608 37,000  Level FlightAware
09:31AM 35.1850 29.0210 125° Southeast 527 606 37,000  Level FlightAware
09:32AM 35.1420 29.0960 125° Southeast 527 606 37,000  Level FlightAware
09:32AM 35.0690 29.2090 128° Southeast 525 604 37,000  Level FlightAware
09:33AM 35.0180 29.2980 125° Southeast 525 604 37,000  Level FlightAware
09:33AM 34.9760 29.3720 125° Southeast 525 604 37,000  Level FlightAware
09:34AM 34.8960 29.4930 129° Southeast 523 602 37,000  Level FlightAware
09:35AM 34.8410 29.5830 127° Southeast 523 602 37,000  Level FlightAware
09:35AM 34.8010 29.6490 126° Southeast 524 603 37,000  Level FlightAware
09:36AM 34.7450 29.7390 127° Southeast 524 603 37,000  Level FlightAware
09:36AM 34.6900 29.8280 127° Southeast 523 602 37,000  Level FlightAware
09:37AM 34.6240 29.9370 126° Southeast 523 602 37,000  Level FlightAware
09:38AM 34.5800 30.0090 127° Southeast 523 602 37,000  Level FlightAware
09:39AM 34.5000 30.1740 120° Southeast 530 610 37,000  Level FlightAware
09:39AM 34.4530 30.2720 120° Southeast 529 609 37,000  Level FlightAware
09:40AM 34.4050 30.3720 120° Southeast 527 606 37,000  Level FlightAware
09:40AM 34.3670 30.4520 120° Southeast 527 606 37,000  Level FlightAware
09:41AM 34.3180 30.5530 120° Southeast 528 608 37,000  Level FlightAware
09:42AM 34.2750 30.6410 121° Southeast 527 606 37,000  Level FlightAware
09:42AM 34.2300 30.7350 120° Southeast 527 606 37,000  Level FlightAware
09:43AM 34.1860 30.8260 120° Southeast 526 605 37,000  Level FlightAware
09:44AM 34.1310 30.9380 121° Southeast 525 604 37,000  Level FlightAware
09:44AM 34.0920 31.0180 120° Southeast 524 603 37,000  Level FlightAware
09:45AM 34.0500 31.1030 121° Southeast 524 603 37,000  Level FlightAware
09:45AM 34.0060 31.1940 120° Southeast 523 602 37,000  Level FlightAware
09:46AM 33.9620 31.2830 121° Southeast 523 602 37,000  Level FlightAware
09:46AM 33.9190 31.3700 121° Southeast 522 601 37,000  Level FlightAware
09:47AM 33.8720 31.4640 121° Southeast 521 600 37,000  Level FlightAware
09:48AM 33.8290 31.5510 121° Southeast 521 600 37,000  Level FlightAware
09:48AM 33.7850 31.6390 121° Southeast 521 600 37,000  Level FlightAware
09:49AM 33.7480 31.7150 120° Southeast 521 600 37,000  Level FlightAware
09:49AM 33.7010 31.8080 121° Southeast 520 598 37,000  Level FlightAware
09:50AM 33.6580 31.8950 121° Southeast 520 598 37,000  Level FlightAware
09:51AM 33.6140 31.9810 122° Southeast 519 597 37,000  Level FlightAware
09:51AM 33.5700 32.0680 121° Southeast 519 597 37,000  Level FlightAware
09:52AM 33.5310 32.1460 121° Southeast 519 597 37,000  Level FlightAware
09:52AM 33.4830 32.2410 121° Southeast 518 596 37,000 -300 Level FlightAware
09:53AM 33.4500 32.3070 121° Southeast 516 594 36,700 -1,200 Descending FlightAware
09:53AM 33.3940 32.4160 122° Southeast 526 605 35,600 -1,680 Descending FlightAware
09:54AM 33.3590 32.4850 121° Southeast 529 609 34,800 -1,380 Descending FlightAware
09:55AM 33.3050 32.5910 121° Southeast 536 617 34,000 -1,080 Descending FlightAware
09:55AM 33.2630 32.6740 121° Southeast 538 619 33,500 -1,080 Descending FlightAware
09:56AM 33.2180 32.7610 122° Southeast 535 616 32,800 -1,980 Descending FlightAware
09:56AM 33.1680 32.8580 122° Southeast 541 623 31,300 -2,880 Descending FlightAware
09:57AM 33.1210 32.9500 121° Southeast 537 618 29,500 -2,280 Descending FlightAware
09:58AM 33.0750 33.0320 124° Southeast 525 604 28,600 -1,860 Descending FlightAware
09:58AM 33.0240 33.1200 125° Southeast 506 582 27,300 -2,160 Descending FlightAware
09:59AM 32.9680 33.2130 126° Southeast 500 575 25,800 -2,040 Descending FlightAware
09:59AM 32.9630 33.2210 127° Southeast 495 570 24,700 -1,980 Descending FlightAware
10:00AM 32.8650 33.3890 125° Southeast 484 557 23,200 -2,040 Descending FlightAware
10:01AM 32.8150 33.4760 124° Southeast 465 535 21,900 -1,920 Descending FlightAware
10:01AM 32.7700 33.5540 124° Southeast 442 509 20,800 -1,800 Descending FlightAware
10:02AM 32.7280 33.6240 125° Southeast 408 470 19,700 -1,500 Descending FlightAware
10:03AM 32.6940 33.6810 125° Southeast 386 444 18,900 -1,440 Descending FlightAware
10:03AM 32.6590 33.7420 124° Southeast 368 423 18,000 -1,680 Descending FlightAware
10:04AM 32.6170 33.8120 125° Southeast 354 407 16,900 -1,500 Descending FlightAware
10:05AM 32.5810 33.8730 125° Southeast 344 396 16,000 -1,440 Descending FlightAware
10:05AM 32.5350 33.9520 125° Southeast 354 407 14,800 -1,440 Descending FlightAware
10:06AM 32.5030 34.0050 126° Southeast 347 399 13,900 -1,500 Descending FlightAware
10:07AM 32.4660 34.0660 126° Southeast 328 377 13,000 -1,440 Descending FlightAware
10:07AM 32.4350 34.1190 125° Southeast 312 359 12,200 -1,260 Descending FlightAware
10:08AM 32.4020 34.1740 125° Southeast 302 348 11,400 -1,140 Descending FlightAware
10:09AM 32.3750 34.2200 125° Southeast 289 333 10,800 -1,140 Descending FlightAware
10:09AM 32.3460 34.2680 126° Southeast 291 335 10,100 -1,200 Descending FlightAware
10:09AM 32.3320 34.2910 126° Southeast 288 331 9,700 -1,080 Descending FlightAware
10:10AM 32.3170 34.3160 125° Southeast 285 328 9,400 -1,080 Descending FlightAware
10:10AM 32.3020 34.3410 125° Southeast 281 323 9,000 -1,200 Descending FlightAware
10:10AM 32.2860 34.3670 126° Southeast 278 320 8,600 -1,260 Descending FlightAware
10:11AM 32.2650 34.4040 124° Southeast 271 312 8,000 -1,020 Descending FlightAware
10:11AM 32.2540 34.4210 127° Southeast 269 310 7,800 -660 Descending FlightAware
10:12AM 32.2470 34.4330 125° Southeast 267 307 7,600 -1,200 Descending FlightAware
10:12AM 32.2190 34.4820 124° Southeast 268 308 6,900 -1,260 Descending FlightAware
10:12AM 32.2110 34.4980 121° Southeast 271 312 6,700 -900 Descending FlightAware
10:13AM 32.1930 34.5310 123° Southeast 273 314 6,300 -720 Descending FlightAware
10:13AM 32.1790 34.5570 122° Southeast 272 313 6,200 -300 Descending FlightAware
10:13AM 32.1670 34.5790 123° Southeast 272 313 6,100 -300 Descending FlightAware
10:14AM 32.1500 34.6100 123° Southeast 272 313 6,000 -420 Descending FlightAware
10:14AM 32.1360 34.6360 122° Southeast 271 312 5,800 -420 Descending FlightAware
10:15AM 32.1160 34.6740 122° Southeast 271 312 5,700 -480 Descending FlightAware
10:15AM 32.1070 34.6910 122° Southeast 267 307 5,500 -720 Descending FlightAware
10:15AM 32.0940 34.7160 122° Southeast 255 293 5,300 -480 Descending FlightAware
10:15AM 32.0820 34.7370 124° Southeast 236 272 5,200 -180 Descending FlightAware
10:16AM 32.0730 34.7540 122° Southeast 222 255 5,200  Level FlightAware
10:16AM 32.0590 34.7770 126° Southeast 212 244 5,200 -300 Level FlightAware
10:17AM 32.0410 34.7970 137° Southeast 209 241 5,000 -420 Descending FlightAware
10:17AM 32.0290 34.8110 135° Southeast 208 239 4,900 -420 Descending FlightAware
10:17AM 32.0100 34.8320 137° Southeast 198 228 4,700 -480 Descending FlightAware
10:18AM 32.0010 34.8430 134° Southeast 187 215 4,600 -1,020 Descending FlightAware
10:18AM 31.9900 34.8550 137° Southeast 184 212 4,200 -1,440 Descending FlightAware
10:18AM 31.9770 34.8700 136° Southeast 184 212 3,700 -1,200 Descending FlightAware
10:19AM 31.9720 34.8870 109° East 181 208 3,400 -900 Descending FlightAware
10:19AM 31.9750 34.9070 80° East 183 211 3,100 -1,080 Descending FlightAware
10:19AM 31.9800 34.9260 73° East 175 201 2,700 -1,200 Descending FlightAware
10:20AM 31.9850 34.9490 76° East 172 198 2,300 -960 Descending FlightAware
10:20AM 31.9890 34.9560 56° Northeast 168 193 2,200 -900 Descending FlightAware
10:20AM 31.9960 34.9620 36° Northeast 167 192 2,000 -780 Descending FlightAware
10:20AM 31.9980 34.9630 23° Northeast 164 189 2,000 -900 Level FlightAware
10:21AM 32.0190 34.9600 353° North 147 169 1,500 -960 Descending FlightAware
10:21AM 32.0230 34.9550 313° West 148 170 1,400 -600 Descending FlightAware
10:21AM 32.0260 34.9450 289° West 144 166 1,300 -180 Descending FlightAware
10:21AM 32.0280 34.9290 278° West 144 166 1,300  Level FlightAware